createdAt,value
2019-02-10T00:00:56.314Z,90.99
2019-02-10T00:03:25.173Z,91.02
2019-02-10T00:05:53.378Z,91.03
2019-02-10T00:08:21.637Z,91.14
2019-02-10T00:10:49.928Z,91.41
2019-02-10T00:13:31.988Z,91.44
2019-02-10T00:16:01.402Z,91.30
2019-02-10T00:18:29.573Z,91.52
2019-02-10T00:20:57.616Z,91.61
2019-02-10T00:23:25.999Z,91.58
2019-02-10T00:25:54.129Z,91.53
2019-02-10T00:28:22.039Z,91.48
2019-02-10T00:30:50.091Z,91.19
2019-02-10T00:33:18.075Z,91.32
2019-02-10T00:35:46.578Z,91.08
2019-02-10T00:38:14.888Z,91.35
2019-02-10T00:40:43.008Z,91.41
2019-02-10T00:43:11.035Z,91.89
2019-02-10T00:45:39.075Z,91.85
2019-02-10T00:48:07.176Z,92.12
2019-02-10T00:50:34.949Z,92.07
2019-02-10T00:53:03.092Z,91.89
2019-02-10T00:55:31.012Z,91.69
2019-02-10T00:57:59.029Z,91.36
2019-02-10T01:00:27.862Z,91.47
2019-02-10T01:02:55.784Z,91.62
2019-02-10T01:05:23.646Z,91.57
2019-02-10T01:07:51.727Z,91.26
2019-02-10T01:10:20.390Z,91.26
2019-02-10T01:12:48.482Z,91.46
2019-02-10T01:15:16.350Z,91.37
2019-02-10T01:17:44.336Z,91.27
2019-02-10T01:20:12.307Z,91.28
2019-02-10T01:22:40.370Z,91.40
2019-02-10T01:25:08.663Z,91.61
2019-02-10T01:27:36.714Z,92.08
2019-02-10T01:30:05.878Z,91.97
2019-02-10T01:32:33.977Z,92.11
2019-02-10T01:35:01.891Z,92.45
2019-02-10T01:37:33.273Z,92.23
2019-02-10T01:40:01.422Z,92.14
2019-02-10T01:42:29.524Z,91.98
2019-02-10T01:44:57.560Z,92.00
2019-02-10T01:47:25.805Z,92.03
2019-02-10T01:49:53.789Z,91.58
2019-02-10T01:52:21.663Z,91.64
2019-02-10T01:54:49.536Z,92.20
2019-02-10T01:57:17.531Z,92.36
2019-02-10T01:59:45.493Z,92.47
2019-02-10T02:02:13.882Z,92.60
2019-02-10T02:04:42.032Z,92.54
2019-02-10T02:07:10.434Z,92.34
2019-02-10T02:09:38.360Z,92.57
2019-02-10T02:12:06.278Z,92.19
2019-02-10T02:14:34.344Z,92.51
2019-02-10T02:17:02.228Z,92.33
2019-02-10T02:19:30.285Z,92.85
2019-02-10T02:21:58.365Z,92.94
2019-02-10T02:24:26.562Z,93.00
2019-02-10T02:26:54.808Z,92.68
2019-02-10T02:29:22.765Z,93.09
2019-02-10T02:31:51.048Z,92.91
2019-02-10T02:34:19.110Z,92.49
2019-02-10T02:36:47.068Z,92.90
2019-02-10T02:39:15.189Z,92.83
2019-02-10T02:41:43.547Z,92.77
2019-02-10T02:44:11.595Z,93.05
2019-02-10T02:46:39.761Z,92.74
2019-02-10T02:49:07.662Z,92.85
2019-02-10T02:51:35.865Z,92.36
2019-02-10T02:54:03.810Z,92.65
2019-02-10T02:56:31.981Z,92.72
2019-02-10T02:59:01.578Z,92.55
2019-02-10T03:01:29.819Z,92.43
2019-02-10T03:03:58.018Z,92.81
2019-02-10T03:06:28.288Z,92.56
2019-02-10T03:08:56.388Z,92.52
2019-02-10T03:11:24.469Z,92.38
2019-02-10T03:13:52.491Z,92.31
2019-02-10T03:16:21.770Z,92.07
2019-02-10T03:18:53.250Z,92.53
2019-02-10T03:21:19.796Z,92.71
2019-02-10T03:23:47.602Z,92.39
2019-02-10T03:26:15.630Z,92.53
2019-02-10T03:28:43.362Z,92.64
2019-02-10T03:31:11.287Z,92.78
2019-02-10T03:33:39.110Z,92.59
2019-02-10T03:36:06.974Z,92.17
2019-02-10T03:38:35.177Z,92.83
2019-02-10T03:41:03.111Z,92.36
2019-02-10T03:43:31.252Z,92.18
2019-02-10T03:45:59.082Z,91.92
2019-02-10T03:48:26.984Z,91.89
2019-02-10T03:50:54.990Z,91.81
2019-02-10T03:53:22.834Z,91.71
2019-02-10T03:55:51.261Z,91.79
2019-02-10T03:58:19.325Z,92.18
2019-02-10T04:00:47.398Z,92.56
2019-02-10T04:03:15.266Z,92.57
2019-02-10T04:05:43.119Z,92.24
2019-02-10T04:08:11.109Z,92.36
2019-02-10T04:10:38.877Z,92.56
2019-02-10T04:13:06.982Z,92.43
2019-02-10T04:15:35.334Z,92.27
2019-02-10T04:18:03.372Z,92.57
2019-02-10T04:20:31.240Z,92.66
2019-02-10T04:22:59.307Z,92.89
2019-02-10T04:25:27.307Z,93.38
2019-02-10T04:27:55.393Z,93.66
2019-02-10T04:30:23.532Z,93.76
2019-02-10T04:32:51.556Z,93.71
2019-02-10T04:35:19.740Z,93.69
2019-02-10T04:37:47.749Z,93.56
2019-02-10T04:40:15.972Z,93.60
2019-02-10T04:42:44.290Z,93.60
2019-02-10T04:45:12.289Z,93.45
2019-02-10T04:47:40.790Z,93.30
2019-02-10T04:50:08.679Z,93.20
2019-02-10T04:52:36.749Z,93.16
2019-02-10T04:55:05.067Z,93.20
2019-02-10T04:57:32.985Z,92.99
2019-02-10T05:00:01.168Z,93.08
2019-02-10T05:02:29.221Z,93.12
2019-02-10T05:04:57.072Z,93.02
2019-02-10T05:07:25.068Z,92.95
2019-02-10T05:09:53.018Z,92.88
2019-02-10T05:12:21.250Z,92.87
2019-02-10T05:14:49.272Z,92.80
2019-02-10T05:17:17.446Z,92.56
2019-02-10T05:19:45.326Z,92.54
2019-02-10T05:22:13.297Z,92.62
2019-02-10T05:24:42.202Z,92.52
2019-02-10T05:27:10.130Z,92.11
2019-02-10T05:29:38.142Z,92.61
2019-02-10T05:32:05.977Z,93.08
2019-02-10T05:34:34.294Z,93.08
2019-02-10T05:37:02.455Z,93.06
2019-02-10T05:39:30.432Z,93.04
2019-02-10T05:41:58.470Z,93.38
2019-02-10T05:44:26.264Z,93.12
2019-02-10T05:46:54.409Z,92.68
2019-02-10T05:49:22.274Z,92.68
2019-02-10T05:51:50.644Z,92.36
2019-02-10T05:54:18.526Z,92.22
2019-02-10T05:56:46.479Z,92.26
2019-02-10T05:59:15.417Z,92.40
2019-02-10T06:01:59.612Z,92.31
2019-02-10T06:04:27.486Z,92.69
2019-02-10T06:06:57.457Z,93.12
2019-02-10T06:09:25.515Z,93.91
2019-02-10T06:11:53.450Z,93.81
2019-02-10T06:14:21.416Z,93.77
2019-02-10T06:16:49.526Z,93.52
2019-02-10T06:19:17.505Z,93.47
2019-02-10T06:21:45.483Z,93.73
2019-02-10T06:24:14.451Z,93.80
2019-02-10T06:26:42.302Z,93.75
2019-02-10T06:29:10.480Z,93.55
2019-02-10T06:31:38.449Z,93.45
2019-02-10T06:34:06.483Z,93.48
2019-02-10T06:36:34.508Z,93.50
2019-02-10T06:39:03.972Z,93.70
2019-02-10T06:41:31.900Z,93.94
2019-02-10T06:44:00.134Z,93.87
2019-02-10T06:46:28.149Z,94.09
2019-02-10T06:48:56.128Z,94.27
2019-02-10T06:51:24.203Z,94.72
2019-02-10T06:53:52.302Z,94.68
2019-02-10T06:56:20.432Z,94.51
2019-02-10T06:58:48.408Z,94.27
2019-02-10T07:01:24.017Z,94.21
2019-02-10T07:03:57.234Z,94.11
2019-02-10T07:06:25.421Z,94.00
2019-02-10T07:08:53.358Z,94.06
2019-02-10T07:11:21.379Z,93.83
2019-02-10T07:13:52.018Z,93.78
2019-02-10T07:16:34.283Z,93.73
2019-02-10T07:19:38.958Z,93.42
2019-02-10T07:22:53.332Z,93.29
2019-02-10T07:26:05.402Z,93.37
2019-02-10T07:29:20.777Z,92.90
2019-02-10T07:32:10.296Z,92.61
2019-02-10T07:35:14.504Z,92.06
2019-02-10T07:37:58.841Z,91.81
2019-02-10T07:41:16.592Z,91.73
2019-02-10T07:44:25.859Z,91.50
2019-02-10T07:47:25.660Z,91.52
2019-02-10T07:50:32.850Z,91.18
2019-02-10T07:53:23.628Z,90.91
2019-02-10T07:56:29.332Z,89.96
2019-02-10T07:59:25.294Z,89.45
2019-02-10T08:02:37.472Z,89.13
2019-02-10T08:05:27.796Z,88.75
2019-02-10T08:08:49.475Z,89.06
2019-02-10T08:11:49.474Z,88.84
2019-02-10T08:14:34.744Z,87.92
2019-02-10T08:17:12.319Z,88.12
2019-02-10T08:20:08.488Z,88.41
2019-02-10T08:22:59.372Z,88.18
2019-02-10T08:25:55.717Z,87.68
2019-02-10T08:29:26.135Z,87.20
2019-02-10T08:32:30.790Z,86.72
2019-02-10T08:35:13.784Z,87.01
2019-02-10T08:38:12.900Z,86.43
2019-02-10T08:41:24.977Z,85.23
2019-02-10T08:44:36.721Z,85.70
2019-02-10T08:47:54.247Z,85.50
2019-02-10T08:50:46.162Z,85.06
2019-02-10T08:53:18.488Z,85.83
2019-02-10T08:55:46.805Z,85.71
2019-02-10T08:58:14.676Z,85.61
2019-02-10T09:00:42.753Z,85.23
2019-02-10T09:03:10.938Z,85.46
2019-02-10T09:05:38.905Z,85.24
2019-02-10T09:08:07.003Z,84.90
2019-02-10T09:10:34.970Z,84.65
2019-02-10T09:13:02.925Z,83.74
2019-02-10T09:15:30.982Z,83.54
2019-02-10T09:17:58.855Z,83.43
2019-02-10T09:20:26.770Z,82.68
2019-02-10T09:22:54.790Z,82.97
2019-02-10T09:25:22.900Z,82.54
2019-02-10T09:27:51.060Z,82.58
2019-02-10T09:30:20.042Z,82.56
2019-02-10T09:32:47.840Z,82.30
2019-02-10T09:35:15.698Z,81.79
2019-02-10T09:37:43.862Z,81.73
2019-02-10T09:40:12.086Z,81.84
2019-02-10T09:42:40.015Z,80.97
2019-02-10T09:45:09.861Z,80.43
2019-02-10T09:47:37.988Z,79.91
2019-02-10T09:50:08.819Z,79.54
2019-02-10T09:52:36.899Z,79.62
2019-02-10T09:55:05.007Z,80.17
2019-02-10T09:57:32.936Z,78.90
2019-02-10T10:00:00.814Z,78.72
2019-02-10T10:02:28.729Z,79.41
2019-02-10T10:04:56.742Z,77.70
2019-02-10T10:07:24.808Z,77.19
2019-02-10T10:09:52.687Z,76.74
2019-02-10T10:12:20.737Z,77.22
2019-02-10T10:14:48.756Z,78.39
2019-02-10T10:17:16.649Z,78.24
2019-02-10T10:19:44.659Z,78.21
2019-02-10T10:22:12.910Z,78.91
2019-02-10T10:24:41.073Z,79.56
2019-02-10T10:27:09.051Z,79.20
2019-02-10T10:29:37.173Z,80.51
2019-02-10T10:32:05.223Z,79.49
2019-02-10T10:34:33.573Z,79.00
2019-02-10T10:37:01.840Z,79.25
2019-02-10T10:39:29.781Z,79.75
2019-02-10T10:41:57.653Z,80.61
2019-02-10T10:44:25.623Z,80.22
2019-02-10T10:46:53.655Z,79.90
2019-02-10T10:49:21.648Z,79.93
2019-02-10T10:51:49.492Z,78.55
2019-02-10T10:54:17.359Z,77.13
2019-02-10T10:56:45.277Z,74.37
2019-02-10T10:59:13.251Z,73.06
2019-02-10T11:01:41.262Z,73.95
2019-02-10T11:04:09.261Z,71.69
2019-02-10T11:06:37.134Z,69.14
2019-02-10T11:09:06.371Z,68.16
2019-02-10T11:11:34.376Z,65.21
2019-02-10T11:14:02.263Z,66.16
2019-02-10T11:16:30.142Z,65.37
2019-02-10T11:18:58.125Z,63.97
2019-02-10T11:21:26.153Z,65.34
2019-02-10T11:23:54.172Z,66.64
2019-02-10T11:26:22.327Z,65.48
2019-02-10T11:28:50.396Z,64.54
2019-02-10T11:31:18.486Z,63.91
2019-02-10T11:33:46.519Z,61.98
2019-02-10T11:36:14.753Z,62.02
2019-02-10T11:38:42.646Z,61.23
2019-02-10T11:41:10.937Z,61.14
2019-02-10T11:43:38.880Z,60.13
2019-02-10T11:46:07.016Z,60.71
2019-02-10T11:48:35.120Z,61.16
2019-02-10T11:51:03.064Z,61.74
2019-02-10T11:53:31.277Z,61.92
2019-02-10T11:55:59.549Z,61.70
2019-02-10T11:58:27.677Z,61.33
2019-02-10T12:00:55.628Z,61.94
2019-02-10T12:03:23.558Z,63.04
2019-02-10T12:05:51.360Z,63.78
2019-02-10T12:08:19.568Z,63.77
2019-02-10T12:10:47.448Z,64.85
2019-02-10T12:13:15.372Z,65.42
2019-02-10T12:15:43.180Z,65.45
2019-02-10T12:18:11.277Z,65.09
2019-02-10T12:20:39.088Z,65.40
2019-02-10T12:23:07.189Z,65.62
2019-02-10T12:25:35.203Z,65.67
2019-02-10T12:28:03.463Z,65.44
2019-02-10T12:30:31.239Z,64.50
2019-02-10T12:32:59.412Z,65.03
2019-02-10T12:35:27.556Z,65.30
2019-02-10T12:37:55.731Z,65.15
2019-02-10T12:40:23.908Z,65.61
2019-02-10T12:42:51.894Z,66.45
2019-02-10T12:45:19.741Z,66.32
2019-02-10T12:47:47.666Z,67.12
2019-02-10T12:50:15.943Z,66.97
2019-02-10T12:52:43.984Z,66.76
2019-02-10T12:55:12.200Z,66.08
2019-02-10T12:57:40.067Z,66.07
2019-02-10T13:00:11.745Z,66.42
2019-02-10T13:02:39.773Z,66.58
2019-02-10T13:05:07.654Z,66.81
2019-02-10T13:07:35.518Z,66.27
2019-02-10T13:10:08.248Z,67.00
2019-02-10T13:12:34.037Z,67.47
2019-02-10T13:15:02.429Z,67.48
2019-02-10T13:17:30.474Z,67.74
2019-02-10T13:19:58.552Z,67.51
2019-02-10T13:22:26.647Z,67.12
2019-02-10T13:24:54.696Z,67.13
2019-02-10T13:27:22.746Z,67.19
2019-02-10T13:29:50.581Z,66.90
2019-02-10T13:32:18.474Z,66.84
2019-02-10T13:34:46.369Z,66.48
2019-02-10T13:37:14.758Z,66.99
2019-02-10T13:39:43.123Z,66.67
2019-02-10T13:42:11.167Z,66.47
2019-02-10T13:44:38.966Z,66.75
2019-02-10T13:47:06.784Z,66.19
2019-02-10T13:49:34.701Z,66.17
2019-02-10T13:52:02.656Z,65.70
2019-02-10T13:54:30.809Z,66.12
2019-02-10T13:56:58.555Z,66.43
2019-02-10T13:59:26.650Z,67.93
2019-02-10T14:01:54.617Z,68.72
2019-02-10T14:04:22.580Z,68.50
2019-02-10T14:06:50.343Z,67.65
2019-02-10T14:09:18.367Z,67.79
2019-02-10T14:11:46.400Z,68.84
2019-02-10T14:14:14.463Z,69.68
2019-02-10T14:16:42.376Z,70.70
2019-02-10T14:19:10.146Z,70.86
2019-02-10T14:21:38.182Z,70.03
2019-02-10T14:24:06.117Z,69.78
2019-02-10T14:26:34.156Z,70.57
2019-02-10T14:29:02.150Z,71.11
2019-02-10T14:31:30.176Z,71.47
2019-02-10T14:33:58.135Z,70.81
2019-02-10T14:36:26.229Z,71.25
2019-02-10T14:38:54.162Z,71.10
2019-02-10T14:41:22.333Z,71.65
2019-02-10T14:43:50.250Z,71.68
2019-02-10T14:46:18.194Z,72.39
2019-02-10T14:48:46.284Z,71.47
2019-02-10T14:51:14.128Z,72.61
2019-02-10T14:53:42.176Z,73.00
2019-02-10T14:56:10.239Z,72.81
2019-02-10T14:58:43.141Z,73.56
2019-02-10T15:01:07.696Z,73.09
2019-02-10T15:03:35.729Z,73.36
2019-02-10T15:06:03.795Z,73.33
2019-02-10T15:08:31.368Z,73.05
2019-02-10T15:10:59.304Z,73.47
2019-02-10T15:13:27.180Z,73.27
2019-02-10T15:15:55.231Z,73.21
2019-02-10T15:18:23.104Z,73.65
2019-02-10T15:20:50.969Z,74.19
2019-02-10T15:23:18.841Z,74.35
2019-02-10T15:25:46.857Z,74.25
2019-02-10T15:28:14.882Z,74.05
2019-02-10T15:30:43.012Z,74.00
2019-02-10T15:33:11.178Z,74.63
2019-02-10T15:35:41.134Z,74.30
2019-02-10T15:38:09.158Z,74.47
2019-02-10T15:40:37.230Z,74.40
2019-02-10T15:43:05.082Z,74.58
2019-02-10T15:45:33.220Z,74.61
2019-02-10T15:48:01.168Z,75.10
2019-02-10T15:50:28.989Z,75.21
2019-02-10T15:52:56.959Z,75.37
2019-02-10T15:55:24.700Z,75.76
2019-02-10T15:57:52.692Z,76.23
2019-02-10T16:00:22.818Z,76.78
2019-02-10T16:02:50.955Z,76.66
2019-02-10T16:05:18.911Z,76.27
2019-02-10T16:07:46.916Z,76.55
2019-02-10T16:10:14.889Z,76.61
2019-02-10T16:12:42.950Z,77.12
2019-02-10T16:15:10.977Z,76.95
2019-02-10T16:17:39.159Z,77.28
2019-02-10T16:20:08.911Z,77.52
2019-02-10T16:22:36.906Z,77.67
2019-02-10T16:25:04.789Z,77.36
2019-02-10T16:27:32.827Z,77.72
2019-02-10T16:30:00.716Z,77.38
2019-02-10T16:32:28.728Z,77.88
2019-02-10T16:34:56.677Z,78.04
2019-02-10T16:37:25.430Z,78.15
2019-02-10T16:39:53.657Z,77.99
2019-02-10T16:42:21.499Z,77.86
2019-02-10T16:44:49.587Z,77.98
2019-02-10T16:47:17.524Z,78.31
2019-02-10T16:49:45.507Z,78.32
2019-02-10T16:52:13.580Z,78.37
2019-02-10T16:54:41.912Z,78.57
2019-02-10T16:57:09.925Z,78.53
2019-02-10T16:59:38.020Z,78.67
2019-02-10T17:02:06.043Z,78.64
2019-02-10T17:04:34.095Z,78.44
2019-02-10T17:07:01.988Z,78.14
2019-02-10T17:09:30.038Z,77.93
2019-02-10T17:11:57.840Z,77.83
2019-02-10T17:14:25.670Z,77.81
2019-02-10T17:16:53.649Z,77.78
2019-02-10T17:19:21.684Z,77.90
2019-02-10T17:21:49.794Z,78.03
2019-02-10T17:24:17.798Z,78.04
2019-02-10T17:26:45.626Z,78.01
2019-02-10T17:29:13.886Z,78.28
2019-02-10T17:31:41.935Z,78.61
2019-02-10T17:34:12.078Z,78.94
2019-02-10T17:36:40.065Z,79.25
2019-02-10T17:39:12.416Z,79.25
2019-02-10T17:41:42.661Z,79.48
2019-02-10T17:44:10.578Z,79.36
2019-02-10T17:46:38.427Z,79.23
2019-02-10T17:49:06.395Z,80.21
2019-02-10T17:51:34.413Z,81.19
2019-02-10T17:54:02.799Z,81.76
2019-02-10T17:56:32.016Z,82.13
2019-02-10T17:58:59.977Z,82.07
2019-02-10T18:01:27.959Z,82.58
2019-02-10T18:03:55.877Z,82.86
2019-02-10T18:06:24.910Z,82.73
2019-02-10T18:08:52.800Z,83.08
2019-02-10T18:11:20.665Z,82.92
2019-02-10T18:13:48.492Z,82.78
2019-02-10T18:16:28.051Z,81.97
2019-02-10T18:19:10.768Z,80.75
2019-02-10T18:22:01.146Z,78.75
2019-02-10T18:24:35.655Z,77.41
2019-02-10T18:27:20.176Z,77.14
2019-02-10T18:30:06.420Z,76.89
2019-02-10T18:33:02.736Z,76.76
2019-02-10T18:35:45.464Z,76.40
2019-02-10T18:38:33.002Z,76.41
2019-02-10T18:41:19.937Z,76.27
2019-02-10T18:44:04.019Z,76.18
2019-02-10T18:46:50.037Z,76.29
2019-02-10T18:49:43.468Z,76.43
2019-02-10T18:52:19.775Z,76.57
2019-02-10T18:55:12.808Z,76.66
2019-02-10T18:58:00.374Z,76.71
2019-02-10T19:00:38.136Z,76.83
2019-02-10T19:03:28.114Z,76.86
2019-02-10T19:06:21.598Z,76.62
2019-02-10T19:09:04.193Z,76.31
2019-02-10T19:11:51.013Z,76.16
2019-02-10T19:14:35.337Z,75.95
2019-02-10T19:17:25.731Z,75.91
2019-02-10T19:20:24.961Z,75.90
2019-02-10T19:23:11.039Z,76.05
2019-02-10T19:25:48.726Z,75.90
2019-02-10T19:28:38.709Z,76.02
2019-02-10T19:31:44.873Z,76.17
2019-02-10T19:34:19.729Z,77.07
2019-02-10T19:37:07.443Z,77.45
2019-02-10T19:39:59.108Z,77.80
2019-02-10T19:42:52.865Z,78.03
2019-02-10T19:45:55.352Z,78.24
2019-02-10T19:48:48.790Z,78.50
2019-02-10T19:51:34.988Z,78.67
2019-02-10T19:54:30.686Z,78.62
2019-02-10T19:57:29.804Z,78.55
2019-02-10T20:00:15.970Z,78.46
2019-02-10T20:02:54.194Z,78.49
2019-02-10T20:05:32.426Z,78.44
2019-02-10T20:08:22.358Z,78.68
2019-02-10T20:10:57.447Z,78.91
2019-02-10T20:13:33.757Z,79.00
2019-02-10T20:16:30.368Z,78.85
2019-02-10T20:19:32.662Z,79.10
2019-02-10T20:22:31.897Z,79.29
2019-02-10T20:25:31.630Z,79.91
2019-02-10T20:28:19.278Z,80.76
2019-02-10T20:31:06.659Z,80.80
2019-02-10T20:33:50.833Z,81.12
2019-02-10T20:36:47.186Z,81.21
2019-02-10T20:39:30.651Z,81.36
2019-02-10T20:42:12.307Z,81.01
2019-02-10T20:44:58.198Z,81.04
2019-02-10T20:47:43.883Z,81.33
2019-02-10T20:50:31.510Z,81.00
2019-02-10T20:53:21.582Z,80.97
2019-02-10T20:56:11.780Z,81.28
2019-02-10T20:58:48.449Z,81.44
2019-02-10T21:01:34.548Z,81.24
2019-02-10T21:04:15.330Z,81.06
2019-02-10T21:07:17.986Z,81.44
2019-02-10T21:09:58.580Z,80.91
2019-02-10T21:12:36.948Z,81.16
2019-02-10T21:15:13.896Z,81.03
2019-02-10T21:17:59.613Z,81.09
2019-02-10T21:20:59.556Z,81.58
2019-02-10T21:23:38.270Z,82.18
2019-02-10T21:26:25.790Z,82.17
2019-02-10T21:29:10.962Z,82.45
2019-02-10T21:31:57.280Z,82.61
2019-02-10T21:34:49.285Z,82.59
2019-02-10T21:37:25.108Z,82.85
2019-02-10T21:40:16.973Z,82.54
2019-02-10T21:43:19.608Z,82.63
2019-02-10T21:46:09.327Z,82.71
2019-02-10T21:48:57.090Z,83.00
2019-02-10T21:51:24.997Z,83.30
2019-02-10T21:53:52.894Z,83.88
2019-02-10T21:56:20.981Z,83.81
2019-02-10T21:58:49.005Z,83.45
2019-02-10T22:01:16.944Z,83.74
2019-02-10T22:03:44.925Z,83.71
2019-02-10T22:06:12.898Z,83.92
2019-02-10T22:08:41.037Z,84.41
2019-02-10T22:11:09.051Z,84.44
2019-02-10T22:13:37.014Z,84.05
2019-02-10T22:16:06.233Z,83.93
2019-02-10T22:18:34.314Z,83.84
2019-02-10T22:21:02.311Z,83.68
2019-02-10T22:23:30.391Z,84.35
2019-02-10T22:25:58.517Z,83.86
2019-02-10T22:28:26.543Z,83.61
2019-02-10T22:30:54.599Z,83.40
2019-02-10T22:33:22.768Z,83.34
2019-02-10T22:35:50.870Z,83.14
2019-02-10T22:38:18.779Z,83.19
2019-02-10T22:40:46.841Z,83.38
2019-02-10T22:43:14.750Z,83.43
2019-02-10T22:45:45.811Z,83.27
2019-02-10T22:48:13.848Z,83.26
2019-02-10T22:50:41.816Z,83.36
2019-02-10T22:53:09.986Z,83.40
2019-02-10T22:55:37.941Z,83.44
2019-02-10T22:58:06.122Z,83.33
2019-02-10T23:00:50.443Z,83.47
2019-02-10T23:03:20.378Z,83.52
2019-02-10T23:05:48.353Z,83.46
2019-02-10T23:08:16.457Z,83.65
2019-02-10T23:10:44.518Z,83.66
2019-02-10T23:13:13.989Z,84.44
2019-02-10T23:15:42.099Z,84.47
2019-02-10T23:18:10.082Z,85.22
2019-02-10T23:20:37.869Z,86.74
2019-02-10T23:23:05.698Z,87.55
2019-02-10T23:25:33.906Z,88.83
2019-02-10T23:28:01.929Z,89.62
2019-02-10T23:30:30.913Z,88.61
2019-02-10T23:32:58.823Z,88.82
2019-02-10T23:35:26.761Z,89.45
2019-02-10T23:37:54.681Z,90.44
2019-02-10T23:40:22.625Z,91.00
2019-02-10T23:42:50.740Z,91.16
2019-02-10T23:45:18.849Z,92.15
2019-02-10T23:47:46.783Z,92.51
2019-02-10T23:50:14.959Z,93.24
2019-02-10T23:52:43.243Z,93.29
2019-02-10T23:55:11.284Z,93.96
2019-02-10T23:57:39.115Z,93.69
